sensor_id;sensor_type;location;lat;lon;timestamp;temperature;humidity
25918;DHT22;13899;51.174;4.456;2022-12-20T00:01:07;12.10;99.90
25918;DHT22;13899;51.174;4.456;2022-12-20T00:03:33;12.20;99.90
25918;DHT22;13899;51.174;4.456;2022-12-20T00:05:59;12.20;99.90
25918;DHT22;13899;51.174;4.456;2022-12-20T00:08:24;12.20;99.90
25918;DHT22;13899;51.174;4.456;2022-12-20T00:10:50;12.20;99.90
25918;DHT22;13899;51.174;4.456;2022-12-20T00:13:15;12.20;99.90
25918;DHT22;13899;51.174;4.456;2022-12-20T00:15:41;12.30;99.90
25918;DHT22;13899;51.174;4.456;2022-12-20T00:18:06;12.20;99.90
25918;DHT22;13899;51.174;4.456;2022-12-20T00:20:32;12.10;99.90
25918;DHT22;13899;51.174;4.456;2022-12-20T00:22:58;12.20;99.90
25918;DHT22;13899;51.174;4.456;2022-12-20T00:25:24;12.10;99.90
25918;DHT22;13899;51.174;4.456;2022-12-20T00:27:50;12.10;99.90
25918;DHT22;13899;51.174;4.456;2022-12-20T00:30:16;12.00;99.90
25918;DHT22;13899;51.174;4.456;2022-12-20T00:32:43;11.90;99.90
25918;DHT22;13899;51.174;4.456;2022-12-20T00:35:09;11.90;99.90
25918;DHT22;13899;51.174;4.456;2022-12-20T00:37:35;12.00;99.90
25918;DHT22;13899;51.174;4.456;2022-12-20T00:40:00;12.00;99.90
25918;DHT22;13899;51.174;4.456;2022-12-20T00:42:26;11.80;99.90
25918;DHT22;13899;51.174;4.456;2022-12-20T00:44:52;11.80;99.90
25918;DHT22;13899;51.174;4.456;2022-12-20T00:47:17;11.60;99.90
25918;DHT22;13899;51.174;4.456;2022-12-20T00:49:43;11.40;99.90
25918;DHT22;13899;51.174;4.456;2022-12-20T00:52:08;11.40;99.90
25918;DHT22;13899;51.174;4.456;2022-12-20T00:54:34;11.30;99.90
25918;DHT22;13899;51.174;4.456;2022-12-20T00:57:00;11.20;99.90
25918;DHT22;13899;51.174;4.456;2022-12-20T00:59:25;11.20;99.90
25918;DHT22;13899;51.174;4.456;2022-12-20T01:01:52;11.40;99.90
25918;DHT22;13899;51.174;4.456;2022-12-20T01:04:17;11.40;99.90
25918;DHT22;13899;51.174;4.456;2022-12-20T01:06:43;11.40;99.90
25918;DHT22;13899;51.174;4.456;2022-12-20T01:09:10;11.40;99.90
25918;DHT22;13899;51.174;4.456;2022-12-20T01:11:36;11.40;99.90
25918;DHT22;13899;51.174;4.456;2022-12-20T01:14:06;11.50;99.90
25918;DHT22;13899;51.174;4.456;2022-12-20T01:16:40;11.50;99.90
25918;DHT22;13899;51.174;4.456;2022-12-20T01:19:07;11.50;99.90
25918;DHT22;13899;51.174;4.456;2022-12-20T01:21:34;11.50;99.90
25918;DHT22;13899;51.174;4.456;2022-12-20T01:24:00;11.50;99.90
25918;DHT22;13899;51.174;4.456;2022-12-20T01:26:27;11.50;99.90
25918;DHT22;13899;51.174;4.456;2022-12-20T01:28:56;11.50;99.90
25918;DHT22;13899;51.174;4.456;2022-12-20T01:31:22;11.60;99.90
25918;DHT22;13899;51.174;4.456;2022-12-20T01:33:49;11.60;99.90
25918;DHT22;13899;51.174;4.456;2022-12-20T01:36:23;11.60;99.90
25918;DHT22;13899;51.174;4.456;2022-12-20T01:38:50;11.60;99.90
25918;DHT22;13899;51.174;4.456;2022-12-20T01:41:17;11.60;99.90
25918;DHT22;13899;51.174;4.456;2022-12-20T01:43:52;11.60;99.90
25918;DHT22;13899;51.174;4.456;2022-12-20T01:46:20;11.60;99.90
25918;DHT22;13899;51.174;4.456;2022-12-20T01:48:51;11.60;99.90
25918;DHT22;13899;51.174;4.456;2022-12-20T01:51:18;11.50;99.90
25918;DHT22;13899;51.174;4.456;2022-12-20T01:53:45;11.60;99.90
25918;DHT22;13899;51.174;4.456;2022-12-20T01:56:11;11.60;99.90
25918;DHT22;13899;51.174;4.456;2022-12-20T01:58:37;11.70;99.90
25918;DHT22;13899;51.174;4.456;2022-12-20T02:01:04;11.80;99.90
25918;DHT22;13899;51.174;4.456;2022-12-20T02:03:30;11.80;99.90
25918;DHT22;13899;51.174;4.456;2022-12-20T02:05:56;11.80;99.90
25918;DHT22;13899;51.174;4.456;2022-12-20T02:08:22;11.80;99.90
25918;DHT22;13899;51.174;4.456;2022-12-20T02:13:47;11.80;99.90
25918;DHT22;13899;51.174;4.456;2022-12-20T02:16:22;12.00;99.90
25918;DHT22;13899;51.174;4.456;2022-12-20T02:24:25;11.90;99.90
25918;DHT22;13899;51.174;4.456;2022-12-20T02:32:25;11.90;99.90
25918;DHT22;13899;51.174;4.456;2022-12-20T02:34:52;11.90;99.90
25918;DHT22;13899;51.174;4.456;2022-12-20T02:37:19;11.90;99.90
25918;DHT22;13899;51.174;4.456;2022-12-20T02:39:45;11.90;99.90
25918;DHT22;13899;51.174;4.456;2022-12-20T02:42:14;11.90;99.90
25918;DHT22;13899;51.174;4.456;2022-12-20T02:44:48;11.90;99.90
25918;DHT22;13899;51.174;4.456;2022-12-20T02:47:39;12.00;99.90
25918;DHT22;13899;51.174;4.456;2022-12-20T02:50:06;12.00;99.90
25918;DHT22;13899;51.174;4.456;2022-12-20T02:52:33;12.00;99.90
25918;DHT22;13899;51.174;4.456;2022-12-20T02:54:59;12.10;99.90
25918;DHT22;13899;51.174;4.456;2022-12-20T02:57:38;11.90;99.90
25918;DHT22;13899;51.174;4.456;2022-12-20T03:00:13;12.00;99.90
25918;DHT22;13899;51.174;4.456;2022-12-20T03:02:40;12.10;99.90
25918;DHT22;13899;51.174;4.456;2022-12-20T03:05:26;12.20;99.90
25918;DHT22;13899;51.174;4.456;2022-12-20T03:07:52;12.20;99.90
25918;DHT22;13899;51.174;4.456;2022-12-20T03:10:18;12.20;99.90
25918;DHT22;13899;51.174;4.456;2022-12-20T03:12:44;12.30;99.90
25918;DHT22;13899;51.174;4.456;2022-12-20T03:15:10;12.30;99.90
25918;DHT22;13899;51.174;4.456;2022-12-20T03:17:36;12.40;99.90
25918;DHT22;13899;51.174;4.456;2022-12-20T03:20:06;12.50;99.90
25918;DHT22;13899;51.174;4.456;2022-12-20T03:22:33;12.50;99.90
25918;DHT22;13899;51.174;4.456;2022-12-20T03:24:59;12.40;99.90
25918;DHT22;13899;51.174;4.456;2022-12-20T03:27:25;12.40;99.90
25918;DHT22;13899;51.174;4.456;2022-12-20T03:29:52;12.50;99.90
25918;DHT22;13899;51.174;4.456;2022-12-20T03:32:18;12.60;99.90
25918;DHT22;13899;51.174;4.456;2022-12-20T03:34:43;12.50;99.90
25918;DHT22;13899;51.174;4.456;2022-12-20T03:37:09;12.50;99.90
25918;DHT22;13899;51.174;4.456;2022-12-20T03:39:35;12.50;99.90
25918;DHT22;13899;51.174;4.456;2022-12-20T03:42:00;12.50;99.90
25918;DHT22;13899;51.174;4.456;2022-12-20T03:44:26;12.50;99.90
25918;DHT22;13899;51.174;4.456;2022-12-20T03:46:52;12.50;99.90
25918;DHT22;13899;51.174;4.456;2022-12-20T03:49:17;12.60;99.90
25918;DHT22;13899;51.174;4.456;2022-12-20T03:51:43;12.50;99.90
25918;DHT22;13899;51.174;4.456;2022-12-20T03:54:08;12.50;99.90
25918;DHT22;13899;51.174;4.456;2022-12-20T03:56:34;12.50;99.90
25918;DHT22;13899;51.174;4.456;2022-12-20T03:58:59;12.50;99.90
25918;DHT22;13899;51.174;4.456;2022-12-20T04:01:27;12.50;99.90
25918;DHT22;13899;51.174;4.456;2022-12-20T04:03:53;12.50;99.90
25918;DHT22;13899;51.174;4.456;2022-12-20T04:06:20;12.50;99.90
25918;DHT22;13899;51.174;4.456;2022-12-20T04:08:46;12.50;99.90
25918;DHT22;13899;51.174;4.456;2022-12-20T04:11:12;12.60;99.90
25918;DHT22;13899;51.174;4.456;2022-12-20T04:13:48;12.50;99.90
25918;DHT22;13899;51.174;4.456;2022-12-20T04:16:17;12.50;99.90
25918;DHT22;13899;51.174;4.456;2022-12-20T04:18:43;12.30;99.90
25918;DHT22;13899;51.174;4.456;2022-12-20T04:21:09;12.30;99.90
25918;DHT22;13899;51.174;4.456;2022-12-20T04:23:35;12.30;99.90
25918;DHT22;13899;51.174;4.456;2022-12-20T04:26:03;12.30;99.90
25918;DHT22;13899;51.174;4.456;2022-12-20T04:28:29;12.40;99.90
25918;DHT22;13899;51.174;4.456;2022-12-20T04:30:54;12.30;99.90
25918;DHT22;13899;51.174;4.456;2022-12-20T04:33:21;12.40;99.90
25918;DHT22;13899;51.174;4.456;2022-12-20T04:35:47;12.50;99.90
25918;DHT22;13899;51.174;4.456;2022-12-20T04:38:13;12.40;99.90
25918;DHT22;13899;51.174;4.456;2022-12-20T04:40:39;12.60;99.90
25918;DHT22;13899;51.174;4.456;2022-12-20T04:43:05;12.50;99.90
25918;DHT22;13899;51.174;4.456;2022-12-20T04:45:32;12.50;99.90
25918;DHT22;13899;51.174;4.456;2022-12-20T04:47:58;12.40;99.90
25918;DHT22;13899;51.174;4.456;2022-12-20T04:50:23;12.50;99.90
25918;DHT22;13899;51.174;4.456;2022-12-20T04:52:49;12.40;99.90
25918;DHT22;13899;51.174;4.456;2022-12-20T04:55:40;12.40;99.90
25918;DHT22;13899;51.174;4.456;2022-12-20T04:58:06;12.40;99.90
25918;DHT22;13899;51.174;4.456;2022-12-20T05:00:32;12.50;99.90
25918;DHT22;13899;51.174;4.456;2022-12-20T05:02:58;12.40;99.90
25918;DHT22;13899;51.174;4.456;2022-12-20T05:05:24;12.50;99.90
25918;DHT22;13899;51.174;4.456;2022-12-20T05:07:50;12.50;99.90
25918;DHT22;13899;51.174;4.456;2022-12-20T05:10:16;12.50;99.90
25918;DHT22;13899;51.174;4.456;2022-12-20T05:12:41;12.50;99.90
25918;DHT22;13899;51.174;4.456;2022-12-20T05:15:08;12.60;99.90
25918;DHT22;13899;51.174;4.456;2022-12-20T05:17:34;12.50;99.90
25918;DHT22;13899;51.174;4.456;2022-12-20T05:19:59;12.50;99.90
25918;DHT22;13899;51.174;4.456;2022-12-20T05:22:25;12.50;99.90
25918;DHT22;13899;51.174;4.456;2022-12-20T05:25:10;12.40;99.90
25918;DHT22;13899;51.174;4.456;2022-12-20T05:27:54;12.30;99.90
25918;DHT22;13899;51.174;4.456;2022-12-20T05:30:20;12.20;99.90
25918;DHT22;13899;51.174;4.456;2022-12-20T05:32:45;12.20;99.90
25918;DHT22;13899;51.174;4.456;2022-12-20T05:35:11;12.20;99.90
25918;DHT22;13899;51.174;4.456;2022-12-20T05:37:37;12.30;99.90
25918;DHT22;13899;51.174;4.456;2022-12-20T05:40:03;12.20;99.90
25918;DHT22;13899;51.174;4.456;2022-12-20T05:42:29;12.20;99.90
25918;DHT22;13899;51.174;4.456;2022-12-20T05:44:54;12.20;99.90
25918;DHT22;13899;51.174;4.456;2022-12-20T05:47:20;12.10;99.90
25918;DHT22;13899;51.174;4.456;2022-12-20T05:49:46;12.20;99.90
25918;DHT22;13899;51.174;4.456;2022-12-20T05:52:11;12.20;99.90
25918;DHT22;13899;51.174;4.456;2022-12-20T05:54:37;12.10;99.90
25918;DHT22;13899;51.174;4.456;2022-12-20T05:57:03;12.00;99.90
25918;DHT22;13899;51.174;4.456;2022-12-20T05:59:28;12.00;99.90
25918;DHT22;13899;51.174;4.456;2022-12-20T06:01:54;12.00;99.90
25918;DHT22;13899;51.174;4.456;2022-12-20T06:04:20;12.00;99.90
25918;DHT22;13899;51.174;4.456;2022-12-20T06:06:46;12.10;99.90
25918;DHT22;13899;51.174;4.456;2022-12-20T06:09:11;12.20;99.90
25918;DHT22;13899;51.174;4.456;2022-12-20T06:11:37;12.20;99.90
25918;DHT22;13899;51.174;4.456;2022-12-20T06:14:03;12.20;99.90
25918;DHT22;13899;51.174;4.456;2022-12-20T06:16:28;12.20;99.90
25918;DHT22;13899;51.174;4.456;2022-12-20T06:18:54;12.20;99.90
25918;DHT22;13899;51.174;4.456;2022-12-20T06:21:21;12.30;99.90
25918;DHT22;13899;51.174;4.456;2022-12-20T06:23:47;12.30;99.90
25918;DHT22;13899;51.174;4.456;2022-12-20T06:26:12;12.40;99.90
25918;DHT22;13899;51.174;4.456;2022-12-20T06:28:38;12.40;99.90
25918;DHT22;13899;51.174;4.456;2022-12-20T06:31:10;12.40;99.90
25918;DHT22;13899;51.174;4.456;2022-12-20T06:33:36;12.40;99.90
25918;DHT22;13899;51.174;4.456;2022-12-20T06:36:01;12.40;99.90
25918;DHT22;13899;51.174;4.456;2022-12-20T06:38:27;12.40;99.90
25918;DHT22;13899;51.174;4.456;2022-12-20T06:40:53;12.40;99.90
25918;DHT22;13899;51.174;4.456;2022-12-20T06:43:18;12.40;99.90
25918;DHT22;13899;51.174;4.456;2022-12-20T06:45:44;12.50;99.90
25918;DHT22;13899;51.174;4.456;2022-12-20T06:48:10;12.50;99.90
25918;DHT22;13899;51.174;4.456;2022-12-20T06:50:39;12.60;99.90
25918;DHT22;13899;51.174;4.456;2022-12-20T06:53:04;12.50;99.90
25918;DHT22;13899;51.174;4.456;2022-12-20T06:55:30;12.60;99.90
25918;DHT22;13899;51.174;4.456;2022-12-20T06:57:56;12.70;99.90
25918;DHT22;13899;51.174;4.456;2022-12-20T07:00:22;12.70;99.90
25918;DHT22;13899;51.174;4.456;2022-12-20T07:02:48;12.70;99.90
25918;DHT22;13899;51.174;4.456;2022-12-20T07:05:14;12.70;99.90
25918;DHT22;13899;51.174;4.456;2022-12-20T07:07:39;12.70;99.90
25918;DHT22;13899;51.174;4.456;2022-12-20T07:10:06;12.60;99.90
25918;DHT22;13899;51.174;4.456;2022-12-20T07:12:32;12.60;99.90
25918;DHT22;13899;51.174;4.456;2022-12-20T07:14:58;12.50;99.90
25918;DHT22;13899;51.174;4.456;2022-12-20T07:17:24;12.40;99.90
25918;DHT22;13899;51.174;4.456;2022-12-20T07:19:49;12.10;99.90
25918;DHT22;13899;51.174;4.456;2022-12-20T07:22:15;11.80;99.90
25918;DHT22;13899;51.174;4.456;2022-12-20T07:24:40;11.50;99.90
25918;DHT22;13899;51.174;4.456;2022-12-20T07:27:06;11.40;99.90
25918;DHT22;13899;51.174;4.456;2022-12-20T07:29:32;11.30;99.90
25918;DHT22;13899;51.174;4.456;2022-12-20T07:31:58;11.20;99.90
25918;DHT22;13899;51.174;4.456;2022-12-20T07:34:23;11.20;99.90
25918;DHT22;13899;51.174;4.456;2022-12-20T07:36:49;11.20;99.90
25918;DHT22;13899;51.174;4.456;2022-12-20T07:39:15;11.10;99.90
25918;DHT22;13899;51.174;4.456;2022-12-20T07:41:41;11.10;99.90
25918;DHT22;13899;51.174;4.456;2022-12-20T07:44:06;11.00;99.90
25918;DHT22;13899;51.174;4.456;2022-12-20T07:46:32;11.00;99.90
25918;DHT22;13899;51.174;4.456;2022-12-20T07:48:58;11.00;99.90
25918;DHT22;13899;51.174;4.456;2022-12-20T07:51:30;10.80;99.90
25918;DHT22;13899;51.174;4.456;2022-12-20T07:54:10;10.90;99.90
25918;DHT22;13899;51.174;4.456;2022-12-20T07:56:39;10.80;99.90
25918;DHT22;13899;51.174;4.456;2022-12-20T07:59:09;10.80;99.90
25918;DHT22;13899;51.174;4.456;2022-12-20T08:01:35;10.80;99.90
25918;DHT22;13899;51.174;4.456;2022-12-20T08:04:10;10.80;99.90
25918;DHT22;13899;51.174;4.456;2022-12-20T08:06:38;10.70;99.90
25918;DHT22;13899;51.174;4.456;2022-12-20T08:09:05;10.60;99.90
25918;DHT22;13899;51.174;4.456;2022-12-20T08:11:33;10.50;99.90
25918;DHT22;13899;51.174;4.456;2022-12-20T08:14:00;10.50;99.90
25918;DHT22;13899;51.174;4.456;2022-12-20T08:16:26;10.50;99.90
25918;DHT22;13899;51.174;4.456;2022-12-20T08:18:51;10.50;99.90
25918;DHT22;13899;51.174;4.456;2022-12-20T08:21:17;10.50;99.90
25918;DHT22;13899;51.174;4.456;2022-12-20T08:23:43;10.40;99.90
25918;DHT22;13899;51.174;4.456;2022-12-20T08:26:09;10.50;99.90
25918;DHT22;13899;51.174;4.456;2022-12-20T08:28:35;10.50;99.90
25918;DHT22;13899;51.174;4.456;2022-12-20T08:31:01;10.60;99.90
25918;DHT22;13899;51.174;4.456;2022-12-20T08:33:27;10.60;99.90
25918;DHT22;13899;51.174;4.456;2022-12-20T08:36:01;10.60;99.90
25918;DHT22;13899;51.174;4.456;2022-12-20T08:38:30;10.50;99.90
25918;DHT22;13899;51.174;4.456;2022-12-20T08:41:02;10.40;99.90
25918;DHT22;13899;51.174;4.456;2022-12-20T08:43:28;10.40;99.90
25918;DHT22;13899;51.174;4.456;2022-12-20T08:45:54;10.50;99.90
25918;DHT22;13899;51.174;4.456;2022-12-20T08:48:20;10.40;99.90
25918;DHT22;13899;51.174;4.456;2022-12-20T08:50:46;10.40;99.90
25918;DHT22;13899;51.174;4.456;2022-12-20T08:53:12;10.50;99.90
25918;DHT22;13899;51.174;4.456;2022-12-20T08:55:37;10.60;99.90
25918;DHT22;13899;51.174;4.456;2022-12-20T08:58:03;10.60;99.90
25918;DHT22;13899;51.174;4.456;2022-12-20T09:00:29;10.60;99.90
25918;DHT22;13899;51.174;4.456;2022-12-20T09:02:54;10.70;99.90
25918;DHT22;13899;51.174;4.456;2022-12-20T09:05:20;10.80;99.90
25918;DHT22;13899;51.174;4.456;2022-12-20T09:07:46;10.70;99.90
25918;DHT22;13899;51.174;4.456;2022-12-20T09:10:11;10.80;99.90
25918;DHT22;13899;51.174;4.456;2022-12-20T09:12:38;10.80;99.90
25918;DHT22;13899;51.174;4.456;2022-12-20T09:15:04;10.80;99.90
25918;DHT22;13899;51.174;4.456;2022-12-20T09:17:30;10.70;99.90
25918;DHT22;13899;51.174;4.456;2022-12-20T09:19:55;10.80;99.90
25918;DHT22;13899;51.174;4.456;2022-12-20T09:22:21;10.80;99.90
25918;DHT22;13899;51.174;4.456;2022-12-20T09:24:47;10.90;99.90
25918;DHT22;13899;51.174;4.456;2022-12-20T09:27:13;10.90;99.90
25918;DHT22;13899;51.174;4.456;2022-12-20T09:29:39;10.90;99.90
25918;DHT22;13899;51.174;4.456;2022-12-20T09:32:04;10.90;99.90
25918;DHT22;13899;51.174;4.456;2022-12-20T09:34:30;10.90;99.90
25918;DHT22;13899;51.174;4.456;2022-12-20T09:36:56;10.90;99.90
25918;DHT22;13899;51.174;4.456;2022-12-20T09:39:21;10.90;99.90
25918;DHT22;13899;51.174;4.456;2022-12-20T09:41:47;11.00;99.90
25918;DHT22;13899;51.174;4.456;2022-12-20T09:44:23;11.00;99.90
25918;DHT22;13899;51.174;4.456;2022-12-20T09:46:53;10.90;99.90
25918;DHT22;13899;51.174;4.456;2022-12-20T09:49:28;10.80;99.90
25918;DHT22;13899;51.174;4.456;2022-12-20T09:52:16;10.80;99.90
25918;DHT22;13899;51.174;4.456;2022-12-20T09:57:58;10.80;99.90
25918;DHT22;13899;51.174;4.456;2022-12-20T10:00:26;10.90;99.90
25918;DHT22;13899;51.174;4.456;2022-12-20T10:02:52;10.80;99.90
25918;DHT22;13899;51.174;4.456;2022-12-20T10:05:42;10.80;99.90
25918;DHT22;13899;51.174;4.456;2022-12-20T10:08:22;10.80;99.90
25918;DHT22;13899;51.174;4.456;2022-12-20T10:16:45;10.80;99.90
25918;DHT22;13899;51.174;4.456;2022-12-20T10:19:35;10.70;99.90
25918;DHT22;13899;51.174;4.456;2022-12-20T10:22:17;10.70;99.90
25918;DHT22;13899;51.174;4.456;2022-12-20T10:24:53;10.70;99.90
25918;DHT22;13899;51.174;4.456;2022-12-20T10:27:20;10.70;99.90
25918;DHT22;13899;51.174;4.456;2022-12-20T10:29:48;10.70;99.90
25918;DHT22;13899;51.174;4.456;2022-12-20T10:32:22;10.70;99.90
25918;DHT22;13899;51.174;4.456;2022-12-20T10:34:54;10.80;99.90
25918;DHT22;13899;51.174;4.456;2022-12-20T10:37:20;10.70;99.90
25918;DHT22;13899;51.174;4.456;2022-12-20T10:39:48;10.70;99.90
25918;DHT22;13899;51.174;4.456;2022-12-20T10:44:48;10.70;99.90
25918;DHT22;13899;51.174;4.456;2022-12-20T10:47:40;10.70;99.90
25918;DHT22;13899;51.174;4.456;2022-12-20T10:50:12;10.70;99.90
25918;DHT22;13899;51.174;4.456;2022-12-20T10:52:39;10.80;99.90
25918;DHT22;13899;51.174;4.456;2022-12-20T10:55:38;10.70;99.90
25918;DHT22;13899;51.174;4.456;2022-12-20T10:58:11;10.70;99.90
25918;DHT22;13899;51.174;4.456;2022-12-20T11:00:38;10.80;99.90
25918;DHT22;13899;51.174;4.456;2022-12-20T11:03:19;10.80;99.90
25918;DHT22;13899;51.174;4.456;2022-12-20T11:05:57;10.80;99.90
25918;DHT22;13899;51.174;4.456;2022-12-20T11:08:24;10.80;99.90
25918;DHT22;13899;51.174;4.456;2022-12-20T11:10:54;10.80;99.90
25918;DHT22;13899;51.174;4.456;2022-12-20T11:13:34;10.90;99.90
25918;DHT22;13899;51.174;4.456;2022-12-20T11:15:59;10.80;99.90
25918;DHT22;13899;51.174;4.456;2022-12-20T11:18:37;11.00;99.90
25918;DHT22;13899;51.174;4.456;2022-12-20T11:35:49;10.80;99.90
25918;DHT22;13899;51.174;4.456;2022-12-20T11:38:40;10.80;99.90
25918;DHT22;13899;51.174;4.456;2022-12-20T11:46:54;10.90;99.90
25918;DHT22;13899;51.174;4.456;2022-12-20T11:52:38;10.80;99.90
25918;DHT22;13899;51.174;4.456;2022-12-20T11:58:26;10.80;99.90
25918;DHT22;13899;51.174;4.456;2022-12-20T12:01:08;10.80;99.90
25918;DHT22;13899;51.174;4.456;2022-12-20T12:03:42;10.70;99.90
25918;DHT22;13899;51.174;4.456;2022-12-20T12:06:20;10.70;99.90
25918;DHT22;13899;51.174;4.456;2022-12-20T12:11:42;10.70;99.90
25918;DHT22;13899;51.174;4.456;2022-12-20T12:14:29;10.70;99.90
25918;DHT22;13899;51.174;4.456;2022-12-20T12:17:05;10.60;99.90
25918;DHT22;13899;51.174;4.456;2022-12-20T12:19:35;10.60;99.90
25918;DHT22;13899;51.174;4.456;2022-12-20T12:22:04;10.60;99.90
25918;DHT22;13899;51.174;4.456;2022-12-20T12:24:36;10.60;99.90
25918;DHT22;13899;51.174;4.456;2022-12-20T12:27:04;10.70;99.90
25918;DHT22;13899;51.174;4.456;2022-12-20T12:29:32;10.70;99.90
25918;DHT22;13899;51.174;4.456;2022-12-20T12:32:03;10.70;99.90
25918;DHT22;13899;51.174;4.456;2022-12-20T12:45:59;10.60;99.90
25918;DHT22;13899;51.174;4.456;2022-12-20T12:48:38;10.60;99.90
25918;DHT22;13899;51.174;4.456;2022-12-20T12:51:05;10.60;99.90
25918;DHT22;13899;51.174;4.456;2022-12-20T12:53:43;10.60;99.90
25918;DHT22;13899;51.174;4.456;2022-12-20T13:01:56;10.60;99.90
25918;DHT22;13899;51.174;4.456;2022-12-20T13:04:58;10.50;99.90
25918;DHT22;13899;51.174;4.456;2022-12-20T13:07:42;10.50;99.90
25918;DHT22;13899;51.174;4.456;2022-12-20T13:20:34;10.50;99.90
25918;DHT22;13899;51.174;4.456;2022-12-20T13:23:14;10.50;99.90
25918;DHT22;13899;51.174;4.456;2022-12-20T13:25:49;10.50;99.90
25918;DHT22;13899;51.174;4.456;2022-12-20T13:44:02;10.40;99.90
25918;DHT22;13899;51.174;4.456;2022-12-20T13:47:02;10.40;99.90
25918;DHT22;13899;51.174;4.456;2022-12-20T13:49:41;10.30;99.90
25918;DHT22;13899;51.174;4.456;2022-12-20T13:54:44;10.40;99.90
25918;DHT22;13899;51.174;4.456;2022-12-20T13:57:15;10.30;99.90
25918;DHT22;13899;51.174;4.456;2022-12-20T13:59:45;10.30;99.90
25918;DHT22;13899;51.174;4.456;2022-12-20T14:02:18;10.40;99.90
25918;DHT22;13899;51.174;4.456;2022-12-20T14:04:46;10.50;99.90
25918;DHT22;13899;51.174;4.456;2022-12-20T14:07:16;10.40;99.90
25918;DHT22;13899;51.174;4.456;2022-12-20T14:09:47;10.30;99.90
25918;DHT22;13899;51.174;4.456;2022-12-20T14:12:19;10.40;99.90
25918;DHT22;13899;51.174;4.456;2022-12-20T14:14:46;10.30;99.90
25918;DHT22;13899;51.174;4.456;2022-12-20T14:20:14;10.30;99.90
25918;DHT22;13899;51.174;4.456;2022-12-20T14:27:58;10.30;99.90
25918;DHT22;13899;51.174;4.456;2022-12-20T14:30:29;10.30;99.90
25918;DHT22;13899;51.174;4.456;2022-12-20T14:32:57;10.30;99.90
25918;DHT22;13899;51.174;4.456;2022-12-20T14:35:23;10.30;99.90
25918;DHT22;13899;51.174;4.456;2022-12-20T14:37:59;10.30;99.90
25918;DHT22;13899;51.174;4.456;2022-12-20T14:40:27;10.30;99.90
25918;DHT22;13899;51.174;4.456;2022-12-20T14:42:53;10.30;99.90
25918;DHT22;13899;51.174;4.456;2022-12-20T14:45:27;10.30;99.90
25918;DHT22;13899;51.174;4.456;2022-12-20T14:48:03;10.30;99.90
25918;DHT22;13899;51.174;4.456;2022-12-20T14:50:36;10.30;99.90
25918;DHT22;13899;51.174;4.456;2022-12-20T14:53:02;10.30;99.90
25918;DHT22;13899;51.174;4.456;2022-12-20T14:55:44;10.40;99.90
25918;DHT22;13899;51.174;4.456;2022-12-20T14:58:25;10.30;99.90
25918;DHT22;13899;51.174;4.456;2022-12-20T15:01:01;10.30;99.90
25918;DHT22;13899;51.174;4.456;2022-12-20T15:03:27;10.20;99.90
25918;DHT22;13899;51.174;4.456;2022-12-20T15:05:55;10.30;99.90
25918;DHT22;13899;51.174;4.456;2022-12-20T15:08:22;10.30;99.90
25918;DHT22;13899;51.174;4.456;2022-12-20T15:11:17;10.30;99.90
25918;DHT22;13899;51.174;4.456;2022-12-20T15:13:45;10.30;99.90
25918;DHT22;13899;51.174;4.456;2022-12-20T15:16:12;10.50;99.90
25918;DHT22;13899;51.174;4.456;2022-12-20T15:18:39;10.30;99.90
25918;DHT22;13899;51.174;4.456;2022-12-20T15:21:13;10.30;99.90
25918;DHT22;13899;51.174;4.456;2022-12-20T15:23:47;10.30;99.90
25918;DHT22;13899;51.174;4.456;2022-12-20T15:26:19;10.30;99.90
25918;DHT22;13899;51.174;4.456;2022-12-20T15:28:44;10.40;99.90
25918;DHT22;13899;51.174;4.456;2022-12-20T15:31:16;10.40;99.90
25918;DHT22;13899;51.174;4.456;2022-12-20T15:33:43;10.40;99.90
25918;DHT22;13899;51.174;4.456;2022-12-20T15:36:21;10.40;99.90
25918;DHT22;13899;51.174;4.456;2022-12-20T15:38:47;10.30;99.90
25918;DHT22;13899;51.174;4.456;2022-12-20T15:41:27;10.40;99.90
25918;DHT22;13899;51.174;4.456;2022-12-20T15:43:56;10.30;99.90
25918;DHT22;13899;51.174;4.456;2022-12-20T15:46:22;10.30;99.90
25918;DHT22;13899;51.174;4.456;2022-12-20T15:48:48;10.40;99.90
25918;DHT22;13899;51.174;4.456;2022-12-20T15:51:20;10.40;99.90
25918;DHT22;13899;51.174;4.456;2022-12-20T15:53:46;10.40;99.90
25918;DHT22;13899;51.174;4.456;2022-12-20T15:56:20;10.30;99.90
25918;DHT22;13899;51.174;4.456;2022-12-20T15:58:47;10.30;99.90
25918;DHT22;13899;51.174;4.456;2022-12-20T16:01:18;10.30;99.90
25918;DHT22;13899;51.174;4.456;2022-12-20T16:03:44;10.30;99.90
25918;DHT22;13899;51.174;4.456;2022-12-20T16:06:11;10.40;99.90
25918;DHT22;13899;51.174;4.456;2022-12-20T16:08:39;10.40;99.90
25918;DHT22;13899;51.174;4.456;2022-12-20T16:11:32;10.40;99.90
25918;DHT22;13899;51.174;4.456;2022-12-20T16:13:58;10.30;99.90
25918;DHT22;13899;51.174;4.456;2022-12-20T16:16:35;10.30;99.90
25918;DHT22;13899;51.174;4.456;2022-12-20T16:19:01;10.30;99.90
25918;DHT22;13899;51.174;4.456;2022-12-20T16:21:44;10.40;99.90
25918;DHT22;13899;51.174;4.456;2022-12-20T16:24:15;10.30;99.90
25918;DHT22;13899;51.174;4.456;2022-12-20T16:26:41;10.30;99.90
25918;DHT22;13899;51.174;4.456;2022-12-20T16:29:07;10.30;99.90
25918;DHT22;13899;51.174;4.456;2022-12-20T16:31:38;10.30;99.90
25918;DHT22;13899;51.174;4.456;2022-12-20T16:34:12;10.30;99.90
25918;DHT22;13899;51.174;4.456;2022-12-20T16:36:38;10.40;99.90
25918;DHT22;13899;51.174;4.456;2022-12-20T16:39:03;10.30;99.90
25918;DHT22;13899;51.174;4.456;2022-12-20T16:41:34;10.40;99.90
25918;DHT22;13899;51.174;4.456;2022-12-20T16:44:01;10.30;99.90
25918;DHT22;13899;51.174;4.456;2022-12-20T16:46:28;10.30;99.90
25918;DHT22;13899;51.174;4.456;2022-12-20T16:48:56;10.30;99.90
25918;DHT22;13899;51.174;4.456;2022-12-20T16:51:31;10.30;99.90
25918;DHT22;13899;51.174;4.456;2022-12-20T16:53:59;10.40;99.90
25918;DHT22;13899;51.174;4.456;2022-12-20T16:56:25;10.40;99.90
25918;DHT22;13899;51.174;4.456;2022-12-20T16:58:51;10.30;99.90
25918;DHT22;13899;51.174;4.456;2022-12-20T17:01:23;10.30;99.90
25918;DHT22;13899;51.174;4.456;2022-12-20T17:03:50;10.30;99.90
25918;DHT22;13899;51.174;4.456;2022-12-20T17:06:16;10.40;99.90
25918;DHT22;13899;51.174;4.456;2022-12-20T17:08:43;10.30;99.90
25918;DHT22;13899;51.174;4.456;2022-12-20T17:11:22;10.30;99.90
25918;DHT22;13899;51.174;4.456;2022-12-20T17:13:49;10.30;99.90
25918;DHT22;13899;51.174;4.456;2022-12-20T17:16:16;10.30;99.90
25918;DHT22;13899;51.174;4.456;2022-12-20T17:18:43;10.40;99.90
25918;DHT22;13899;51.174;4.456;2022-12-20T17:21:20;10.30;99.90
25918;DHT22;13899;51.174;4.456;2022-12-20T17:23:46;10.30;99.90
25918;DHT22;13899;51.174;4.456;2022-12-20T17:26:24;10.40;99.90
25918;DHT22;13899;51.174;4.456;2022-12-20T17:28:51;10.30;99.90
25918;DHT22;13899;51.174;4.456;2022-12-20T17:31:37;10.30;99.90